Station: EBLB - 22/04/2018 14:25Z (il y a 8 minutes)
EBLB 221425Z AUTO 24014G24KT 9999 NCD 24/08 Q1012 BLU
Vent du 240º - 14 kt - rafales 24 kt
Visibilité > 10 km
Pas de nuages détectés
Température: +24ºC - Point de rosée: +08ºC - QNH: 1012 hPa
Code couleur militaire: BLU (conditions VMC)